Time;durP1;ratioP1;P1;durP2;ratioP2;P2;SDS_P1;SDS_P2;PMS_P1;PMS_P2;Temp;Humidity;BMP_temperature;BMP_pressure;BME280_temperature;BME280_humidity;BME280_pressure;Samples;Min_cycle;Max_cycle;Signal;HPM_P1;HPM_P2
2022/06/15 00:02:06;;;;;;;1.52;1.10;;;;;;;13.68;77.99;101708.03;5078449;28;20127;-80
2022/06/15 00:04:32;;;;;;;1.98;1.10;;;;;;;13.67;77.44;101707.16;5077871;28;20557;-81
2022/06/15 00:06:58;;;;;;;1.10;1.00;;;;;;;13.65;78.00;101706.31;5078113;28;20054;-81
2022/06/15 00:09:23;;;;;;;1.58;1.48;;;;;;;13.63;78.49;101708.09;5094899;28;20016;-81
2022/06/15 00:11:48;;;;;;;1.70;1.33;;;;;;;13.60;78.17;101712.50;5077998;28;20027;-80
2022/06/15 00:14:26;;;;;;;1.00;1.00;;;;;;;13.57;77.97;101713.41;5078055;28;20031;-80
2022/06/15 00:16:52;;;;;;;1.20;1.10;;;;;;;13.55;78.41;101717.78;5077865;28;20023;-81
2022/06/15 00:19:18;;;;;;;1.20;1.10;;;;;;;13.54;79.07;101716.06;5077655;28;20027;-81
2022/06/15 00:21:44;;;;;;;1.30;1.15;;;;;;;13.55;78.56;101716.94;5077804;28;20038;-80
2022/06/15 00:24:10;;;;;;;1.20;1.20;;;;;;;13.54;78.05;101713.44;5094641;28;20027;-81
2022/06/15 00:26:36;;;;;;;1.75;1.33;;;;;;;13.54;78.18;101713.44;5077670;28;20030;-80
2022/06/15 00:29:01;;;;;;;1.52;1.30;;;;;;;13.55;77.66;101707.28;5094774;28;20027;-80
2022/06/15 00:31:27;;;;;;;1.17;1.10;;;;;;;13.56;78.07;101702.94;5077572;28;20057;-80
2022/06/15 00:33:52;;;;;;;1.40;1.30;;;;;;;13.58;79.07;101711.63;5077710;28;20027;-80
2022/06/15 00:36:19;;;;;;;1.40;1.30;;;;;;;13.58;78.13;101712.53;5077613;28;20061;-80
2022/06/15 00:38:51;;;;;;;1.55;1.20;;;;;;;13.57;78.25;101716.03;5077554;28;20496;-80
2022/06/15 00:41:37;;;;;;;1.25;1.17;;;;;;;13.59;78.92;101714.25;5077562;28;20020;-81
2022/06/15 00:44:23;;;;;;;1.50;1.33;;;;;;;13.60;79.49;101710.72;5077785;28;20035;-80
2022/06/15 00:46:52;;;;;;;1.33;1.23;;;;;;;13.61;79.45;101714.25;5080777;28;20035;-81
2022/06/15 00:49:38;;;;;;;1.08;1.00;;;;;;;13.61;78.63;101719.50;5077246;28;20023;-80
2022/06/15 00:52:32;;;;;;;2.00;1.00;;;;;;;13.62;78.50;101718.59;5077505;28;20398;-80
2022/06/15 00:54:58;;;;;;;1.83;1.40;;;;;;;13.62;79.03;101710.72;5078284;28;20019;-80
2022/06/15 00:57:25;;;;;;;2.50;1.27;;;;;;;13.54;78.32;101705.59;5077383;28;20024;-80
2022/06/15 00:59:56;;;;;;;1.10;1.08;;;;;;;13.56;78.90;101706.41;5077247;28;20023;-80
2022/06/15 01:02:23;;;;;;;1.50;1.23;;;;;;;13.58;79.16;101712.53;5077318;28;20058;-81
2022/06/15 01:04:54;;;;;;;1.48;1.17;;;;;;;13.58;79.37;101707.28;5077302;28;20392;-80
2022/06/15 01:07:29;;;;;;;2.08;1.10;;;;;;;13.59;79.51;101702.88;5094119;28;20041;-80
2022/06/15 01:09:58;;;;;;;1.30;1.20;;;;;;;13.59;79.71;101689.75;5094313;28;20023;-81
2022/06/15 01:12:51;;;;;;;1.40;1.10;;;;;;;13.59;78.85;101692.38;5094043;28;20024;-81
2022/06/15 01:15:28;;;;;;;1.63;1.27;;;;;;;13.58;79.66;101690.63;5080140;28;20492;-80
2022/06/15 01:18:21;;;;;;;1.92;1.20;;;;;;;13.58;79.81;101685.38;5077745;28;20026;-80
2022/06/15 01:20:58;;;;;;;1.73;1.27;;;;;;;13.56;79.85;101693.28;5098115;28;20027;-80
2022/06/15 01:23:51;;;;;;;1.02;1.02;;;;;;;13.58;79.56;101699.41;5081093;28;20015;-80
2022/06/15 01:26:51;;;;;;;1.48;1.27;;;;;;;13.57;80.43;101692.41;5080880;28;20434;-80
2022/06/15 01:29:28;;;;;;;1.20;1.10;;;;;;;13.57;79.70;101692.41;5097816;28;20110;-80
2022/06/15 01:31:54;;;;;;;1.67;1.20;;;;;;;13.57;78.77;101694.19;5116332;28;20502;-80
2022/06/15 01:34:27;;;;;;;3.35;1.77;;;;;;;13.55;79.57;101696.78;5097883;28;20115;-80
2022/06/15 01:37:11;;;;;;;3.58;1.50;;;;;;;13.55;79.12;101696.78;5080958;28;20034;-80
2022/06/15 01:39:44;;;;;;;2.13;1.42;;;;;;;13.56;79.66;101690.66;5116417;28;20313;-81
2022/06/15 01:42:29;;;;;;;1.38;1.27;;;;;;;13.54;79.60;101689.81;5097436;28;20114;-80
2022/06/15 01:44:59;;;;;;;1.67;1.23;;;;;;;13.54;80.57;101695.06;5080919;28;20080;-81
2022/06/15 01:47:26;;;;;;;1.95;1.13;;;;;;;13.52;80.73;101692.47;5080771;28;20023;-81
2022/06/15 01:49:57;;;;;;;1.60;1.50;;;;;;;13.52;80.47;101694.22;5097718;28;20024;-81
2022/06/15 01:52:25;;;;;;;1.55;1.27;;;;;;;13.52;80.89;101691.59;5080893;28;20031;-80
2022/06/15 01:55:06;;;;;;;2.00;1.23;;;;;;;13.49;81.13;101686.38;5080693;28;20030;-80
2022/06/15 01:57:34;;;;;;;1.30;1.10;;;;;;;13.51;80.78;101685.47;5080343;28;20396;-80
2022/06/15 02:00:04;;;;;;;1.67;1.58;;;;;;;13.52;81.29;101681.09;5080187;28;20032;-80
2022/06/15 02:02:51;;;;;;;1.40;1.00;;;;;;;13.52;79.96;101686.34;5080810;28;20114;-80
2022/06/15 02:05:19;;;;;;;1.88;1.17;;;;;;;13.52;79.83;101687.22;5097442;28;20028;-80
2022/06/15 02:08:10;;;;;;;2.03;1.30;;;;;;;13.52;80.66;101681.09;5115651;28;20035;-81
2022/06/15 02:10:41;;;;;;;1.52;1.08;;;;;;;13.53;79.95;101685.47;5080346;28;20107;-81
2022/06/15 02:13:29;;;;;;;1.58;1.20;;;;;;;13.53;80.48;101688.09;5080336;28;20035;-80
2022/06/15 02:16:06;;;;;;;1.65;1.20;;;;;;;13.52;81.32;101681.09;5080020;28;20487;-80
2022/06/15 02:18:33;;;;;;;1.38;1.25;;;;;;;13.52;81.20;101678.47;5096887;28;20043;-80
2022/06/15 02:21:03;;;;;;;1.48;1.38;;;;;;;13.52;81.84;101676.72;5079993;28;20030;-81
2022/06/15 02:23:31;;;;;;;1.30;1.20;;;;;;;13.53;80.97;101677.59;5079754;28;20027;-80
2022/06/15 02:25:58;;;;;;;2.20;1.00;;;;;;;13.52;81.15;101675.84;5079935;28;20019;-81
2022/06/15 02:28:28;;;;;;;2.03;1.27;;;;;;;13.51;81.32;101674.97;5079708;28;20165;-81
2022/06/15 02:30:54;;;;;;;0.82;0.82;;;;;;;13.51;81.59;101679.34;5078961;28;20054;-80
2022/06/15 02:33:28;;;;;;;1.77;1.40;;;;;;;13.50;81.51;101678.50;5079743;28;20027;-80
2022/06/15 02:35:54;;;;;;;1.42;1.30;;;;;;;13.49;81.28;101683.75;5096949;28;20020;-80
2022/06/15 02:38:20;;;;;;;3.22;1.45;;;;;;;13.50;81.41;101675.00;5079605;28;20032;-80
2022/06/15 02:40:45;;;;;;;1.40;1.30;;;;;;;13.49;81.15;101681.13;5096366;28;20024;-80
2022/06/15 02:43:12;;;;;;;1.65;1.55;;;;;;;13.48;80.65;101668.91;5080307;28;20034;-81
2022/06/15 02:45:38;;;;;;;2.47;1.63;;;;;;;13.47;80.36;101662.78;5084766;28;20548;-80
2022/06/15 02:48:06;;;;;;;2.17;1.95;;;;;;;13.47;80.87;101669.78;5084812;28;20051;-81
2022/06/15 02:50:36;;;;;;;2.35;1.60;;;;;;;13.47;81.20;101672.41;5085188;28;20023;-81
2022/06/15 02:53:05;;;;;;;1.42;1.33;;;;;;;13.45;81.35;101664.53;5084629;28;20481;-80
2022/06/15 02:55:32;;;;;;;2.00;1.90;;;;;;;13.48;80.11;101671.53;5084561;28;20109;-81
2022/06/15 02:58:08;;;;;;;2.28;1.80;;;;;;;13.46;80.92;101674.16;5085261;28;20024;-81
2022/06/15 03:00:34;;;;;;;1.77;1.40;;;;;;;13.44;80.14;101672.44;5083468;28;20023;-81
2022/06/15 03:02:59;;;;;;;2.65;1.65;;;;;;;13.43;81.33;101671.59;5084165;28;20485;-80
2022/06/15 03:05:25;;;;;;;1.60;1.33;;;;;;;13.44;80.97;101667.19;5083919;28;20026;-81
2022/06/15 03:07:50;;;;;;;1.75;1.60;;;;;;;13.42;81.45;101674.25;5084113;28;20032;-81
2022/06/15 03:10:15;;;;;;;4.15;1.73;;;;;;;13.41;80.73;101669.88;5083838;28;20015;-81
2022/06/15 03:12:41;;;;;;;1.35;1.30;;;;;;;13.41;80.46;101662.00;5084586;28;20027;-80
2022/06/15 03:15:07;;;;;;;1.80;1.40;;;;;;;13.39;80.85;101664.66;5083947;28;20023;-80
2022/06/15 03:17:32;;;;;;;3.03;1.38;;;;;;;13.38;80.26;101656.78;5083524;28;20036;-81
2022/06/15 03:19:57;;;;;;;2.30;1.30;;;;;;;13.36;80.55;101659.41;5083899;28;20023;-81
2022/06/15 03:22:23;;;;;;;2.28;1.45;;;;;;;13.34;80.18;101666.41;5084196;28;20032;-81
2022/06/15 03:24:48;;;;;;;1.80;1.67;;;;;;;13.33;81.25;101668.19;5083472;28;20499;-81
2022/06/15 03:27:14;;;;;;;1.75;1.65;;;;;;;13.31;80.56;101664.69;5083787;28;20080;-80
2022/06/15 03:29:40;;;;;;;1.90;1.77;;;;;;;13.29;81.02;101669.13;5084049;28;20043;-81
2022/06/15 03:32:06;;;;;;;2.63;1.77;;;;;;;13.29;81.41;101676.97;5083700;28;20023;-80
2022/06/15 03:34:31;;;;;;;2.58;1.80;;;;;;;13.29;81.26;101674.34;5083403;28;20024;-81
2022/06/15 03:36:56;;;;;;;2.97;1.70;;;;;;;13.28;81.54;101676.97;5083665;28;20026;-80
2022/06/15 03:39:22;;;;;;;1.52;1.42;;;;;;;13.28;81.76;101672.63;5083206;28;20403;-80
2022/06/15 03:41:48;;;;;;;1.77;1.60;;;;;;;13.28;81.55;101675.22;5082920;28;20027;-81
2022/06/15 03:44:13;;;;;;;2.00;1.77;;;;;;;13.29;81.45;101669.13;5060519;22;20036;-85
2022/06/15 03:46:39;;;;;;;1.77;1.67;;;;;;;13.30;81.30;101667.34;5054724;28;20071;-84
2022/06/15 03:49:04;;;;;;;1.92;1.83;;;;;;;13.31;81.08;101667.31;5034992;28;20052;-83
2022/06/15 03:51:29;;;;;;;1.98;1.88;;;;;;;13.35;80.82;101669.06;5034904;28;20066;-83
2022/06/15 03:53:55;;;;;;;2.72;1.50;;;;;;;13.35;80.55;101668.16;5034728;28;20029;-83
2022/06/15 03:56:20;;;;;;;1.40;1.30;;;;;;;13.33;81.41;101672.53;5034910;28;20029;-83
2022/06/15 03:58:46;;;;;;;2.15;1.85;;;;;;;13.33;81.31;101665.56;5051303;28;20025;-83
2022/06/15 04:01:12;;;;;;;1.77;1.67;;;;;;;13.37;81.60;101673.41;5051451;28;20102;-83
2022/06/15 04:03:37;;;;;;;3.65;1.77;;;;;;;13.40;82.20;101670.75;5018090;28;20035;-84
2022/06/15 04:06:03;;;;;;;1.85;1.73;;;;;;;13.41;81.35;101678.59;5034882;28;20024;-83
2022/06/15 04:08:37;;;;;;;2.55;1.95;;;;;;;13.42;81.24;101675.09;5034455;28;20025;-83
2022/06/15 04:11:03;;;;;;;2.22;1.80;;;;;;;13.45;81.12;101676.81;5019281;28;20067;-83
2022/06/15 04:13:29;;;;;;;1.85;1.75;;;;;;;13.46;81.96;101676.78;5034514;28;20029;-83
2022/06/15 04:15:54;;;;;;;2.03;1.58;;;;;;;13.49;82.12;101670.63;5034551;28;20028;-83
2022/06/15 04:18:21;;;;;;;1.83;1.70;;;;;;;13.51;81.14;101674.09;5034530;28;20028;-84
2022/06/15 04:20:46;;;;;;;2.25;1.60;;;;;;;13.52;81.09;101663.59;5034391;28;20035;-83
2022/06/15 04:23:14;;;;;;;1.85;1.65;;;;;;;13.54;81.62;101674.09;5034382;28;20040;-83
2022/06/15 04:25:40;;;;;;;2.08;1.70;;;;;;;13.56;81.95;101666.19;5017799;28;20051;-83
2022/06/15 04:28:07;;;;;;;2.08;1.70;;;;;;;13.56;81.77;101667.03;5034121;28;20025;-83
2022/06/15 04:30:33;;;;;;;4.05;2.00;;;;;;;13.57;81.36;101667.94;5017888;28;20021;-84
2022/06/15 04:32:58;;;;;;;2.25;2.00;;;;;;;13.55;81.80;101654.78;5034331;28;20496;-83
2022/06/15 04:35:24;;;;;;;2.08;1.88;;;;;;;13.55;81.43;101660.03;5034234;28;20504;-83
2022/06/15 04:37:49;;;;;;;2.30;2.10;;;;;;;13.55;81.68;101649.53;5017830;28;20025;-83
2022/06/15 04:40:15;;;;;;;2.08;1.70;;;;;;;13.56;81.81;101653.91;5034086;28;20111;-83
2022/06/15 04:42:41;;;;;;;2.35;1.95;;;;;;;13.58;81.73;101657.41;5017689;28;20021;-83
2022/06/15 04:45:08;;;;;;;2.58;1.90;;;;;;;13.60;81.80;101657.38;5017650;28;20475;-83
2022/06/15 04:47:34;;;;;;;3.03;2.25;;;;;;;13.62;81.40;101656.47;5017593;28;20056;-84
2022/06/15 04:49:59;;;;;;;2.40;2.20;;;;;;;13.65;80.86;101656.41;5034084;28;20064;-83
2022/06/15 04:52:24;;;;;;;2.67;2.08;;;;;;;13.66;80.63;101655.53;5034025;28;20021;-83
2022/06/15 04:54:50;;;;;;;2.72;2.10;;;;;;;13.69;81.08;101663.38;5037853;28;20029;-84
2022/06/15 04:57:15;;;;;;;2.08;1.67;;;;;;;13.75;81.16;101667.66;5038092;28;20390;-82
2022/06/15 04:59:42;;;;;;;2.63;2.33;;;;;;;13.78;80.94;101662.34;5037975;28;20453;-83
2022/06/15 05:02:07;;;;;;;3.90;2.53;;;;;;;13.82;80.70;101663.19;5038157;28;20028;-83
2022/06/15 05:04:33;;;;;;;2.67;2.50;;;;;;;13.85;80.42;101668.38;5037786;28;20033;-83
2022/06/15 05:06:58;;;;;;;2.58;2.40;;;;;;;13.88;80.21;101668.38;5037983;28;20017;-83
2022/06/15 05:09:24;;;;;;;2.78;2.58;;;;;;;13.92;80.79;101672.69;5037897;28;20110;-83
2022/06/15 05:11:49;;;;;;;2.78;2.53;;;;;;;13.94;80.76;101663.00;5037837;28;20024;-83
2022/06/15 05:14:15;;;;;;;2.58;2.33;;;;;;;13.96;80.82;101663.88;5037887;28;20021;-82
2022/06/15 05:16:41;;;;;;;3.17;2.33;;;;;;;13.98;80.16;101662.06;5038653;28;20079;-83
2022/06/15 05:19:06;;;;;;;2.30;2.10;;;;;;;13.99;79.39;101661.19;5037532;28;20078;-83
2022/06/15 05:21:38;;;;;;;3.33;2.33;;;;;;;14.01;79.62;101662.00;5037666;28;20021;-83
2022/06/15 05:24:03;;;;;;;3.38;2.05;;;;;;;14.03;79.82;101662.03;5021126;28;20032;-82
2022/06/15 05:26:29;;;;;;;2.00;1.90;;;;;;;14.03;79.17;101660.25;5037561;28;20024;-83
2022/06/15 05:28:55;;;;;;;2.75;1.90;;;;;;;14.07;79.69;101668.97;5021094;28;20082;-83
2022/06/15 05:31:22;;;;;;;3.05;2.17;;;;;;;14.08;79.55;101659.31;5037533;28;20390;-83
2022/06/15 05:33:55;;;;;;;2.58;2.00;;;;;;;14.10;79.63;101668.06;5020983;28;20025;-83
2022/06/15 05:36:30;;;;;;;1.73;1.63;;;;;;;14.12;79.78;101671.50;5022482;28;20071;-83
2022/06/15 05:38:55;;;;;;;1.75;1.65;;;;;;;14.12;78.58;101672.34;5020705;28;20086;-83
2022/06/15 05:41:21;;;;;;;2.00;1.90;;;;;;;14.14;79.24;101669.75;5037435;28;20030;-83
2022/06/15 05:46:30;;;;;;;3.33;2.28;;;;;;;14.15;78.38;101671.44;5054013;28;20055;-84
2022/06/15 05:48:57;;;;;;;1.70;1.60;;;;;;;14.16;79.34;101668.78;5020984;28;20159;-83
2022/06/15 05:51:23;;;;;;;1.98;1.65;;;;;;;14.19;79.69;101675.75;5020645;28;20065;-83
2022/06/15 05:53:48;;;;;;;2.65;2.45;;;;;;;14.20;80.25;101674.88;5020605;28;20052;-83
2022/06/15 05:56:14;;;;;;;4.47;2.33;;;;;;;14.18;79.37;101672.28;5020639;28;20509;-83
2022/06/15 05:58:40;;;;;;;1.50;1.40;;;;;;;14.19;79.24;101670.50;5020427;28;20049;-82
2022/06/15 06:01:30;;;;;;;3.67;1.50;;;;;;;14.19;79.57;101673.13;5037047;28;20390;-84
2022/06/15 06:03:56;;;;;;;2.08;1.80;;;;;;;14.20;80.14;101667.00;5036583;28;20025;-83
2022/06/15 06:06:22;;;;;;;2.00;1.85;;;;;;;14.20;79.30;101669.63;5036845;28;20607;-83
2022/06/15 06:08:47;;;;;;;2.15;2.05;;;;;;;14.19;79.46;101671.41;5020326;28;20458;-82
2022/06/15 06:11:13;;;;;;;2.13;1.95;;;;;;;14.22;80.18;101669.59;5036869;28;20028;-82
2022/06/15 06:13:40;;;;;;;2.92;2.20;;;;;;;14.23;80.11;101666.09;5020107;28;20028;-82
2022/06/15 06:16:06;;;;;;;2.15;1.85;;;;;;;14.23;79.70;101669.56;5020276;28;20516;-83
2022/06/15 06:18:31;;;;;;;3.05;1.70;;;;;;;14.26;79.57;101663.41;5036809;28;20029;-83
2022/06/15 06:20:57;;;;;;;5.18;2.60;;;;;;;14.27;77.85;101666.00;5036639;28;20031;-84
2022/06/15 06:23:22;;;;;;;2.80;2.40;;;;;;;14.30;78.50;101665.97;5036523;28;20021;-83
2022/06/15 06:25:50;;;;;;;2.50;2.30;;;;;;;14.33;79.22;101671.16;5036662;28;20103;-83
2022/06/15 06:28:31;;;;;;;5.50;2.45;;;;;;;14.35;77.98;101668.50;5020327;28;20116;-84
2022/06/15 06:30:58;;;;;;;3.80;2.30;;;;;;;14.39;77.96;101670.19;5020037;28;20025;-84
2022/06/15 06:33:27;;;;;;;2.35;2.22;;;;;;;14.44;78.59;101673.63;5019748;28;20056;-83
2022/06/15 06:35:58;;;;;;;2.65;2.45;;;;;;;14.48;79.02;101675.31;5036360;28;20414;-83
2022/06/15 06:38:24;;;;;;;3.45;2.03;;;;;;;14.53;78.73;101675.22;5019482;28;20040;-83
2022/06/15 06:40:51;;;;;;;2.00;1.90;;;;;;;14.57;78.85;101681.31;5036134;28;20040;-83
2022/06/15 06:43:16;;;;;;;2.35;1.95;;;;;;;14.61;78.75;101685.59;5019719;28;20036;-83
2022/06/15 06:45:42;;;;;;;3.22;1.90;;;;;;;14.63;78.58;101682.09;5036514;28;20025;-83
2022/06/15 06:48:08;;;;;;;3.15;1.95;;;;;;;14.64;76.50;101682.94;5036015;28;20028;-83
2022/06/15 06:50:35;;;;;;;2.75;2.10;;;;;;;14.66;77.92;101679.41;5019492;28;20043;-83
2022/06/15 06:53:01;;;;;;;2.67;2.05;;;;;;;14.69;78.74;101684.59;5019582;28;20024;-83
2022/06/15 06:55:28;;;;;;;2.30;2.15;;;;;;;14.71;77.36;101684.56;5032235;28;20017;-83
2022/06/15 06:57:57;;;;;;;3.13;2.00;;;;;;;14.69;75.50;101679.34;4999899;28;20032;-83
2022/06/15 07:00:23;;;;;;;2.83;1.92;;;;;;;14.69;75.59;101687.22;5016060;28;20082;-82
2022/06/15 07:02:49;;;;;;;1.88;1.70;;;;;;;14.70;76.46;101691.59;5027805;28;20021;-83
2022/06/15 07:05:14;;;;;;;1.67;1.58;;;;;;;14.74;77.62;101691.53;5035527;28;20036;-83
2022/06/15 07:07:40;;;;;;;2.45;1.55;;;;;;;14.73;78.60;101687.19;5035498;28;20051;-83
2022/06/15 07:10:06;;;;;;;3.58;2.10;;;;;;;14.73;75.65;101695.09;5019116;28;20021;-83
2022/06/15 07:12:32;;;;;;;3.17;1.90;;;;;;;14.73;76.85;101689.81;5035521;28;20159;-83
2022/06/15 07:14:58;;;;;;;2.55;2.03;;;;;;;14.75;77.82;101688.91;5018904;28;20025;-83
2022/06/15 07:17:23;;;;;;;1.73;1.55;;;;;;;14.77;77.93;101692.38;5018440;28;20078;-83
2022/06/15 07:19:49;;;;;;;2.67;1.58;;;;;;;14.77;77.54;101691.50;5035238;28;20479;-82
2022/06/15 07:22:14;;;;;;;2.22;1.80;;;;;;;14.78;77.44;101693.22;5035251;28;20143;-83
2022/06/15 07:24:39;;;;;;;3.58;1.70;;;;;;;14.79;77.57;101689.69;5035211;28;20033;-83
2022/06/15 07:27:05;;;;;;;2.08;1.88;;;;;;;14.81;76.57;101693.19;5035028;28;20029;-84
2022/06/15 07:29:30;;;;;;;2.60;1.70;;;;;;;14.83;76.02;101686.13;5035389;28;20071;-84
2022/06/15 07:31:56;;;;;;;2.38;1.80;;;;;;;14.84;73.32;101693.13;5034998;28;20081;-82
2022/06/15 07:34:22;;;;;;;2.85;1.77;;;;;;;14.86;71.75;101686.06;5035075;28;20033;-83
2022/06/15 07:36:48;;;;;;;1.83;1.73;;;;;;;14.87;72.46;101690.44;5018524;28;20111;-83
2022/06/15 07:39:20;;;;;;;2.22;1.50;;;;;;;14.88;71.83;101686.91;5018446;28;20185;-83
2022/06/15 07:41:46;;;;;;;4.53;1.38;;;;;;;14.89;70.89;101680.75;5018617;28;20116;-83
2022/06/15 07:44:12;;;;;;;3.80;1.73;;;;;;;14.90;69.79;101687.72;5034632;28;20028;-83
2022/06/15 07:46:38;;;;;;;1.85;1.50;;;;;;;14.91;71.10;101684.22;5035074;28;20031;-83
2022/06/15 07:51:54;;;;;;;2.78;1.80;;;;;;;14.96;70.60;101686.78;5037761;28;20036;-83
2022/06/15 07:54:20;;;;;;;2.38;1.70;;;;;;;15.00;68.93;101688.47;5034718;28;20082;-83
2022/06/15 07:56:46;;;;;;;2.08;1.42;;;;;;;15.03;70.88;101688.38;5018390;28;20029;-83
2022/06/15 07:59:12;;;;;;;2.88;1.60;;;;;;;15.06;71.76;101687.47;5018018;28;20484;-83
2022/06/15 08:01:38;;;;;;;2.10;1.75;;;;;;;15.10;70.15;101683.88;5034683;28;20073;-82
2022/06/15 08:04:04;;;;;;;1.92;1.48;;;;;;;15.15;70.66;101688.16;5034677;28;20021;-83
2022/06/15 08:06:30;;;;;;;2.67;1.55;;;;;;;15.18;67.97;101687.22;5018214;28;20493;-82
2022/06/15 08:08:56;;;;;;;2.58;1.65;;;;;;;15.22;69.99;101683.63;5034487;28;20017;-83
2022/06/15 08:11:22;;;;;;;3.08;1.95;;;;;;;15.27;71.36;101686.16;5034468;28;20078;-83
2022/06/15 08:13:48;;;;;;;1.85;1.58;;;;;;;15.31;71.42;101683.47;5018108;28;20028;-83
2022/06/15 08:16:14;;;;;;;2.47;1.60;;;;;;;15.35;67.99;101682.50;5017975;28;20050;-83
2022/06/15 08:18:42;;;;;;;1.73;1.25;;;;;;;15.37;66.97;101683.31;5018147;28;20029;-83
2022/06/15 08:21:12;;;;;;;3.45;1.30;;;;;;;15.42;69.21;101685.00;5034321;28;20029;-83
2022/06/15 08:23:40;;;;;;;5.43;1.48;;;;;;;15.45;68.79;101690.22;5034161;28;20474;-83
2022/06/15 08:26:10;;;;;;;1.83;1.50;;;;;;;15.49;69.27;101687.47;5018409;28;20028;-83
2022/06/15 08:28:38;;;;;;;1.85;1.17;;;;;;;15.53;67.66;101678.59;5016986;28;20028;-82
2022/06/15 08:31:03;;;;;;;2.05;1.38;;;;;;;15.56;66.56;101682.94;5034123;28;20029;-83
2022/06/15 08:33:29;;;;;;;4.05;1.85;;;;;;;15.57;64.96;101679.41;5050955;28;20047;-83
2022/06/15 08:35:55;;;;;;;2.83;1.35;;;;;;;15.57;65.87;101674.16;5034297;28;20513;-82
2022/06/15 08:38:22;;;;;;;3.15;1.35;;;;;;;15.59;66.70;101677.59;5017761;28;20562;-83
2022/06/15 08:40:51;;;;;;;2.92;1.35;;;;;;;15.61;68.14;101681.09;5017603;28;20060;-83
2022/06/15 08:43:20;;;;;;;1.20;1.10;;;;;;;15.66;69.64;101668.66;5017708;28;20032;-83
2022/06/15 08:45:51;;;;;;;2.83;1.48;;;;;;;15.76;70.52;101669.34;5033999;28;20025;-82
2022/06/15 08:48:23;;;;;;;1.30;1.20;;;;;;;15.89;69.58;101665.53;5017569;28;20031;-83
2022/06/15 08:50:51;;;;;;;1.38;1.00;;;;;;;16.09;67.81;101664.22;5034423;28;20033;-83
2022/06/15 08:53:43;;;;;;;2.42;1.25;;;;;;;16.29;65.74;101668.13;5033907;28;20029;-82
2022/06/15 08:56:16;;;;;;;1.52;1.40;;;;;;;16.42;66.91;101668.72;5034082;28;20033;-82
2022/06/15 08:59:07;;;;;;;3.08;1.63;;;;;;;16.46;64.53;101670.38;5050647;28;20036;-82
2022/06/15 09:02:00;;;;;;;1.85;1.27;;;;;;;16.45;64.38;101664.22;5026682;28;20521;-82
2022/06/15 09:04:46;;;;;;;1.20;1.10;;;;;;;16.44;64.38;101664.25;5033696;28;20032;-82
2022/06/15 09:07:51;;;;;;;1.83;1.40;;;;;;;16.37;65.76;101672.34;5017315;28;20028;-82
2022/06/15 09:10:35;;;;;;;1.83;1.58;;;;;;;16.33;63.01;101664.53;5027610;28;20061;-83
2022/06/15 09:13:20;;;;;;;1.58;1.48;;;;;;;16.28;61.68;101667.28;5033900;28;20029;-82
2022/06/15 09:16:03;;;;;;;3.80;1.70;;;;;;;16.24;61.47;101668.25;5033799;28;20592;-83
2022/06/15 09:18:35;;;;;;;1.55;1.45;;;;;;;16.24;64.36;101670.91;5033721;28;20025;-82
2022/06/15 09:21:08;;;;;;;2.67;2.15;;;;;;;16.25;63.11;101667.34;5017412;28;20093;-83
2022/06/15 09:23:40;;;;;;;2.45;1.60;;;;;;;16.29;63.75;101669.03;5033661;28;20029;-81
2022/06/15 09:26:17;;;;;;;1.70;1.60;;;;;;;16.36;62.73;101667.06;5033594;28;20111;-82
2022/06/15 09:28:46;;;;;;;2.42;1.67;;;;;;;16.44;61.10;101658.97;5017726;28;20492;-82
2022/06/15 09:31:16;;;;;;;2.08;1.70;;;;;;;16.48;61.96;101658.00;5033752;28;20028;-83
2022/06/15 09:33:51;;;;;;;2.13;1.90;;;;;;;16.48;62.01;101661.50;5033572;28;20017;-82
2022/06/15 09:36:21;;;;;;;1.67;1.58;;;;;;;16.49;63.17;101667.66;5033608;28;20029;-82
2022/06/15 09:38:47;;;;;;;4.93;2.05;;;;;;;16.48;63.33;101663.28;5017444;28;20051;-82
2022/06/15 09:41:26;;;;;;;4.20;1.90;;;;;;;16.42;63.82;101658.16;5037224;28;20021;-82
2022/06/15 09:44:06;;;;;;;3.08;2.03;;;;;;;16.37;65.08;101655.63;5047740;22;20068;-80
2022/06/15 09:46:40;;;;;;;3.53;1.75;;;;;;;16.39;65.93;101654.69;5037764;28;20025;-80
2022/06/15 09:49:15;;;;;;;3.85;2.28;;;;;;;16.40;62.42;101658.19;5037895;28;20120;-81
2022/06/15 09:52:16;;;;;;;2.40;2.20;;;;;;;16.45;63.45;101661.56;5037301;28;20032;-80
2022/06/15 09:54:41;;;;;;;3.38;2.20;;;;;;;16.48;61.92;101658.00;5028097;28;20037;-80
2022/06/15 09:57:07;;;;;;;1.80;1.70;;;;;;;16.54;62.22;101655.22;5037588;28;20501;-80
2022/06/15 09:59:47;;;;;;;2.53;1.95;;;;;;;16.59;63.36;101652.44;5035973;28;20055;-80
2022/06/15 10:02:27;;;;;;;2.83;2.00;;;;;;;16.69;62.72;101652.16;5021081;28;20112;-79
2022/06/15 10:04:53;;;;;;;3.85;2.40;;;;;;;16.81;62.31;101639.53;5025540;28;20037;-80
2022/06/15 10:07:27;;;;;;;2.42;1.80;;;;;;;16.93;61.48;101648.94;5020497;28;20375;-79
2022/06/15 10:10:01;;;;;;;7.07;2.60;;;;;;;17.05;62.40;101640.66;5020626;28;20490;-80
2022/06/15 10:12:56;;;;;;;3.85;2.38;;;;;;;17.21;62.07;101641.09;5037707;28;20029;-80
2022/06/15 10:15:51;;;;;;;2.03;1.88;;;;;;;17.34;60.39;101634.56;5026204;28;20040;-80
2022/06/15 10:18:35;;;;;;;2.45;2.03;;;;;;;17.45;59.42;101633.34;5030220;28;20040;-79
2022/06/15 10:21:13;;;;;;;2.13;1.92;;;;;;;17.49;59.42;101627.06;5037608;28;20029;-79
2022/06/15 10:24:00;;;;;;;2.72;2.20;;;;;;;17.50;57.46;101626.16;5036146;28;20055;-80
2022/06/15 10:26:29;;;;;;;3.33;2.45;;;;;;;17.54;57.17;101622.53;5036663;28;20029;-80
2022/06/15 10:28:55;;;;;;;3.58;2.45;;;;;;;17.60;57.54;101624.09;5037111;28;20394;-80
2022/06/15 10:31:34;;;;;;;2.53;2.33;;;;;;;17.63;55.90;101619.59;5020855;28;20025;-80
2022/06/15 10:34:25;;;;;;;2.75;2.45;;;;;;;17.67;57.12;101628.28;5037383;28;20536;-80
2022/06/15 10:37:06;;;;;;;3.95;2.13;;;;;;;17.70;55.55;101615.84;5020711;28;20051;-80
2022/06/15 10:39:35;;;;;;;2.10;1.90;;;;;;;17.72;56.31;101619.31;5022120;28;20021;-80
2022/06/15 10:42:06;;;;;;;4.15;2.72;;;;;;;17.69;55.72;101619.41;5020583;28;20048;-80
2022/06/15 10:44:33;;;;;;;2.60;2.40;;;;;;;17.63;54.99;101624.88;5037068;28;20086;-80
2022/06/15 10:47:20;;;;;;;3.95;2.05;;;;;;;17.53;54.53;101620.78;5054693;28;20025;-80
2022/06/15 10:49:53;;;;;;;2.83;2.10;;;;;;;17.47;56.31;101623.63;5022249;28;20040;-79
2022/06/15 10:52:35;;;;;;;2.28;2.08;;;;;;;17.37;55.81;101613.34;5019397;28;20025;-79
2022/06/15 11:04:15;;;;;;;3.53;2.08;;;;;;;17.44;56.86;101605.22;5039270;28;20521;-80
2022/06/15 11:06:50;;;;;;;2.90;2.40;;;;;;;17.50;55.96;101599.75;5020409;28;20531;-79
2022/06/15 11:09:43;;;;;;;3.70;2.50;;;;;;;17.54;57.65;101598.75;5019947;28;20025;-80
2022/06/15 11:12:34;;;;;;;2.67;2.05;;;;;;;17.65;56.30;101591.34;5019861;28;20028;-79
2022/06/15 11:18:01;;;;;;;4.50;2.20;;;;;;;17.81;60.52;101585.59;5013271;28;20072;-80
2022/06/15 11:18:21;;;;;;;4.05;2.55;;;;;;;18.02;62.48;101582.25;5054140;28;20052;-80
2022/06/15 11:20:53;;;;;;;3.95;2.15;;;;;;;18.28;63.77;101588.44;5020187;28;20144;-80
2022/06/15 11:23:45;;;;;;;3.20;2.38;;;;;;;18.54;62.13;101582.25;5036975;28;20029;-80
2022/06/15 11:29:31;;;;;;;3.30;2.72;;;;;;;19.04;54.40;101580.47;5053776;28;20389;-80
2022/06/15 11:32:00;;;;;;;3.17;2.67;;;;;;;19.26;55.02;101575.22;5036725;28;20040;-80
2022/06/15 11:34:31;;;;;;;5.55;2.97;;;;;;;19.43;55.32;101575.44;5019597;28;20478;-80
2022/06/15 11:37:03;;;;;;;3.42;2.30;;;;;;;19.54;52.78;101574.16;5029378;28;20389;-80
2022/06/15 11:39:45;;;;;;;3.47;2.75;;;;;;;19.57;51.26;101572.22;5039465;28;20028;-80
2022/06/15 11:42:14;;;;;;;6.10;2.75;;;;;;;19.54;50.19;101568.84;5056684;28;20028;-81
2022/06/15 11:44:42;;;;;;;3.03;2.72;;;;;;;19.54;50.72;101566.19;5039431;28;20120;-81
2022/06/15 11:47:23;;;;;;;4.32;2.60;;;;;;;19.62;50.06;101557.91;5055924;28;20020;-79
2022/06/15 11:50:01;;;;;;;6.05;2.70;;;;;;;19.70;50.37;101563.78;5073187;28;20044;-80
2022/06/15 11:52:48;;;;;;;3.30;2.60;;;;;;;19.74;52.38;101560.94;5057666;28;20546;-80
2022/06/15 11:55:21;;;;;;;3.25;2.70;;;;;;;19.83;49.31;101565.03;5041862;28;20066;-80
2022/06/15 11:58:09;;;;;;;3.80;2.97;;;;;;;19.81;48.21;101560.72;5041576;28;20075;-80
2022/06/15 12:00:59;;;;;;;3.17;2.63;;;;;;;19.82;49.58;101552.69;5056853;28;20028;-80